Het weer levert geen direct gevaar op.    Er zijn geen waarschuwingen afgegeven.

Onweer radar Meer informatie blitzortung!


Regen radar Meer informatie rain snow radar



METAR rapporten vliegvelden

   
EHGR - Dalem
Gewijzigd: 23-04-2021 19:55
Helder  
Helder  
   Wind: NNO 5.1 m/s
Wind: NNO 5.1 m/s
Temperatuur: 12°C
Dauwpunt: 1°C
Vochtigheid: 47%
Barometer: 1027 hPa
Bewolking: Helder
Zicht: meer dan 10 km
Bewolking: Helder
EHGR 231755Z AUTO 03010KT 340V070 9999 NCD 12/01 Q1027 BLU NOSIG
EHGR - Roosendaal
Gewijzigd: 23-04-2021 19:55
Helder  
Helder  
   Wind: NNO 5.1 m/s
Wind: NNO 5.1 m/s
Temperatuur: 12°C
Dauwpunt: 1°C
Vochtigheid: 47%
Barometer: 1027 hPa
Bewolking: Helder
Zicht: meer dan 10 km
Bewolking: Helder
EHGR 231755Z AUTO 03010KT 340V070 9999 NCD 12/01 Q1027 BLU NOSIG
EHRD - Rotterdam
Gewijzigd: 23-04-2021 19:55
Helder  
Helder  
   Wind: Noorden 4.6 m/s
Wind: Noorden 4.6 m/s
Temperatuur: 10°C
Voelt als: 8°C
Dauwpunt: 5°C
Vochtigheid: 71%
Barometer: 1028 hPa
Bewolking: Helder
Zicht: meer dan 10 km
Bewolking: Helder
EHRD 231755Z AUTO 35009KT 300V040 9999 NCD 10/05 Q1028 NOSIG
EHLW - Urk
Gewijzigd: 23-04-2021 19:55
Bewolking  
Bewolking  
   Wind: Noorden 4.1 m/s
Wind: Noorden 4.1 m/s
Temperatuur: 8°C
Voelt als: 6°C
Dauwpunt: 4°C
Vochtigheid: 76%
Barometer: 1029 hPa
Bewolking: Bewolking
Zicht: meer dan 10 km
Bewolking: Bewolking 25000 ft
EHLW 231755Z AUTO 35008KT 320V020 9999 OVC250 08/04 Q1029 BLU
EHDL - Veenendaal
Gewijzigd: 23-04-2021 19:55
Helder  
Helder  
   Wind: NNO 4.1 m/s
Wind: NNO 4.1 m/s
Temperatuur: 11°C
Dauwpunt: 2°C
Vochtigheid: 54%
Barometer: 1028 hPa
Bewolking: Helder
Zicht: meer dan 10 km
Bewolking: Helder
EHDL 231755Z AUTO 03008KT 320V100 9999 NCD 11/02 Q1028 BLU
EHRD - Vianen
Gewijzigd: 23-04-2021 19:55
Helder  
Helder  
   Wind: Noorden 4.6 m/s
Wind: Noorden 4.6 m/s
Temperatuur: 10°C
Voelt als: 8°C
Dauwpunt: 5°C
Vochtigheid: 71%
Barometer: 1028 hPa
Bewolking: Helder
Zicht: meer dan 10 km
Bewolking: Helder
EHRD 231755Z AUTO 35009KT 300V040 9999 NCD 10/05 Q1028 NOSIG

Script ontwikkeld door  Saratoga-weather.org Aangepast voor de template door  Weerstation Leuven

U vindt ons ook hier:

Het Weer Aktueel

UK Metoffice

European Weather Network

WeatherCloud

Weather Underground

AWEKAS

Citizen Weather Observer Program (CWOP)

HAMweather, WeatherForYou, PWS Weather

Apparatuur in gebruik:

Weerstation
Davis VP2 weatherstation

Weerprogramma
Meteobridge

Weercomputer
Asus WL_330N3G

Davis VP2 weatherstation

Meteobridge

Asus WL_330N3G